createdAt,value
2018-09-06T00:01:47.812Z,99.90
2018-09-06T00:04:16.153Z,99.90
2018-09-06T00:06:44.532Z,99.90
2018-09-06T00:09:12.889Z,99.90
2018-09-06T00:11:41.256Z,99.90
2018-09-06T00:14:09.596Z,99.90
2018-09-06T00:16:37.985Z,99.90
2018-09-06T00:19:06.334Z,99.90
2018-09-06T00:21:34.717Z,99.90
2018-09-06T00:24:03.085Z,99.90
2018-09-06T00:26:31.492Z,99.90
2018-09-06T00:28:59.832Z,99.90
2018-09-06T00:31:28.197Z,99.90
2018-09-06T00:33:56.540Z,99.90
2018-09-06T00:36:34.318Z,99.90
2018-09-06T00:39:02.728Z,99.90
2018-09-06T00:41:31.092Z,99.90
2018-09-06T00:43:59.429Z,99.90
2018-09-06T00:46:27.797Z,99.90
2018-09-06T00:48:56.115Z,99.90
2018-09-06T00:51:24.504Z,99.90
2018-09-06T00:53:52.859Z,99.90
2018-09-06T00:56:21.208Z,99.90
2018-09-06T00:58:49.568Z,99.90
2018-09-06T01:01:17.947Z,99.90
2018-09-06T01:03:46.260Z,99.90
2018-09-06T01:06:14.616Z,99.90
2018-09-06T01:08:42.963Z,99.90
2018-09-06T01:11:11.316Z,99.90
2018-09-06T01:13:39.627Z,99.90
2018-09-06T01:16:07.988Z,99.90
2018-09-06T01:18:36.491Z,99.90
2018-09-06T01:21:04.861Z,99.90
2018-09-06T01:23:33.238Z,99.90
2018-09-06T01:26:01.624Z,99.90
2018-09-06T01:28:29.936Z,99.90
2018-09-06T01:30:58.315Z,99.90
2018-09-06T01:33:26.624Z,99.90
2018-09-06T01:36:00.208Z,99.90
2018-09-06T01:38:28.564Z,99.90
2018-09-06T01:40:56.940Z,99.90
2018-09-06T01:43:25.288Z,99.90
2018-09-06T01:45:53.660Z,99.90
2018-09-06T01:48:21.988Z,99.90
2018-09-06T01:50:50.340Z,99.90
2018-09-06T01:53:18.657Z,99.90
2018-09-06T01:55:47.012Z,99.90
2018-09-06T01:58:15.399Z,99.90
2018-09-06T02:00:43.812Z,99.90
2018-09-06T02:03:12.179Z,99.90
2018-09-06T02:05:40.532Z,99.90
2018-09-06T02:08:08.835Z,99.90
2018-09-06T02:10:37.184Z,99.90
2018-09-06T02:13:05.496Z,99.90
2018-09-06T02:15:34.043Z,99.90
2018-09-06T02:18:02.372Z,99.90
2018-09-06T02:20:30.731Z,99.90
2018-09-06T02:22:59.055Z,99.90
2018-09-06T02:25:27.405Z,99.90
2018-09-06T02:27:55.763Z,99.90
2018-09-06T02:30:24.076Z,99.90
2018-09-06T02:32:52.420Z,99.90
2018-09-06T02:35:20.739Z,99.90
2018-09-06T02:37:49.083Z,99.90
2018-09-06T02:40:22.776Z,99.90
2018-09-06T02:42:51.124Z,99.90
2018-09-06T02:45:19.548Z,99.90
2018-09-06T02:47:53.797Z,99.90
2018-09-06T02:50:27.436Z,99.90
2018-09-06T02:52:56.481Z,99.90
2018-09-06T02:55:25.961Z,99.90
2018-09-06T02:57:54.340Z,99.90
2018-09-06T03:00:30.336Z,99.90
2018-09-06T03:02:58.808Z,99.90
2018-09-06T03:05:27.657Z,99.90
2018-09-06T03:07:56.987Z,99.90
2018-09-06T03:10:27.400Z,99.90
2018-09-06T03:12:55.776Z,99.90
2018-09-06T03:15:24.159Z,99.90
2018-09-06T03:17:52.507Z,99.90
2018-09-06T03:20:20.844Z,99.90
2018-09-06T03:22:49.207Z,99.90
2018-09-06T03:25:17.540Z,99.90
2018-09-06T03:27:45.916Z,99.90
2018-09-06T03:30:14.245Z,99.90
2018-09-06T03:32:42.600Z,99.90
2018-09-06T03:35:10.944Z,99.90
2018-09-06T03:37:39.328Z,99.90
2018-09-06T03:40:07.656Z,99.90
2018-09-06T03:42:36.015Z,99.90
2018-09-06T03:45:04.365Z,99.90
2018-09-06T03:47:32.732Z,99.90
2018-09-06T03:50:01.059Z,99.90
2018-09-06T03:52:29.432Z,99.90
2018-09-06T03:54:57.782Z,99.90
2018-09-06T03:57:26.188Z,99.90
2018-09-06T03:59:54.509Z,99.90
2018-09-06T04:02:22.911Z,99.90
2018-09-06T04:04:51.329Z,99.90
2018-09-06T04:07:19.695Z,99.90
2018-09-06T04:09:48.027Z,99.90
2018-09-06T04:12:16.384Z,99.90
2018-09-06T04:14:44.720Z,99.90
2018-09-06T04:17:13.088Z,99.90
2018-09-06T04:19:41.512Z,99.90
2018-09-06T04:22:09.893Z,99.90
2018-09-06T04:24:38.232Z,99.90
2018-09-06T04:27:06.617Z,99.90
2018-09-06T04:29:34.943Z,99.90
2018-09-06T04:32:03.361Z,99.90
2018-09-06T04:34:31.756Z,99.90
2018-09-06T04:37:00.089Z,99.90
2018-09-06T04:39:28.466Z,99.90
2018-09-06T04:41:56.828Z,99.90
2018-09-06T04:44:25.345Z,99.90
2018-09-06T04:46:53.676Z,99.90
2018-09-06T04:49:22.048Z,99.90
2018-09-06T04:51:50.417Z,99.90
2018-09-06T04:54:18.781Z,99.90
2018-09-06T04:56:47.112Z,99.90
2018-09-06T04:59:15.484Z,99.90
2018-09-06T05:01:43.855Z,99.90
2018-09-06T05:04:12.269Z,99.90
2018-09-06T05:06:40.616Z,99.90
2018-09-06T05:09:09.843Z,99.90
2018-09-06T05:11:39.040Z,99.90
2018-09-06T05:14:07.432Z,99.90
2018-09-06T05:16:35.756Z,99.90
2018-09-06T05:19:04.143Z,99.90
2018-09-06T05:21:32.460Z,99.90
2018-09-06T05:24:00.813Z,99.90
2018-09-06T05:26:29.148Z,99.90
2018-09-06T05:28:57.522Z,99.90
2018-09-06T05:31:25.919Z,99.90
2018-09-06T05:33:54.270Z,99.90
2018-09-06T05:36:22.672Z,99.90
2018-09-06T05:38:51.001Z,99.90
2018-09-06T05:41:20.344Z,99.90
2018-09-06T05:43:48.852Z,99.90
2018-09-06T05:46:17.266Z,99.90
2018-09-06T05:48:45.644Z,99.90
2018-09-06T05:51:13.977Z,99.90
2018-09-06T05:53:42.344Z,99.90
2018-09-06T05:56:10.680Z,99.90
2018-09-06T05:58:39.051Z,99.90
2018-09-06T06:01:07.404Z,99.90
2018-09-06T06:03:35.752Z,99.90
2018-09-06T06:06:04.066Z,99.90
2018-09-06T06:08:44.816Z,99.90
2018-09-06T06:11:13.152Z,99.90
2018-09-06T06:13:41.527Z,99.90
2018-09-06T06:16:10.315Z,99.90
2018-09-06T06:18:38.683Z,99.90
2018-09-06T06:21:07.024Z,99.90
2018-09-06T06:23:35.413Z,99.90
2018-09-06T06:26:03.833Z,99.90
2018-09-06T06:28:32.244Z,99.90
2018-09-06T06:31:00.556Z,99.90
2018-09-06T06:33:28.903Z,99.90
2018-09-06T06:35:57.345Z,99.90
2018-09-06T06:38:25.759Z,99.90
2018-09-06T06:40:54.088Z,99.90
2018-09-06T06:43:22.532Z,99.90
2018-09-06T06:45:50.933Z,99.90
2018-09-06T06:48:19.309Z,99.90
2018-09-06T06:50:47.657Z,99.90
2018-09-06T06:53:15.977Z,99.90
2018-09-06T06:55:44.332Z,99.90
2018-09-06T06:58:12.675Z,99.90
2018-09-06T07:00:42.115Z,99.90
2018-09-06T07:03:11.995Z,99.90
2018-09-06T07:05:41.095Z,99.90
2018-09-06T07:08:09.776Z,99.90
2018-09-06T07:10:38.220Z,99.90
2018-09-06T07:13:06.836Z,99.90
2018-09-06T07:15:35.192Z,99.90
2018-09-06T07:18:03.557Z,99.90
2018-09-06T07:20:32.006Z,99.90
2018-09-06T07:23:00.334Z,99.90
2018-09-06T07:25:28.727Z,99.90
2018-09-06T07:27:57.097Z,99.90
2018-09-06T07:30:25.477Z,99.90
2018-09-06T07:32:53.801Z,99.90
2018-09-06T07:35:22.299Z,99.90
2018-09-06T07:37:50.507Z,99.90
2018-09-06T07:40:18.864Z,99.90
2018-09-06T07:42:47.204Z,99.90
2018-09-06T07:45:15.549Z,99.90
2018-09-06T07:47:43.872Z,99.90
2018-09-06T07:50:12.299Z,99.90
2018-09-06T07:52:40.568Z,99.90
2018-09-06T07:55:08.921Z,99.90
2018-09-06T07:57:37.235Z,99.90
2018-09-06T08:00:05.851Z,99.90
2018-09-06T08:02:34.264Z,99.90
2018-09-06T08:05:02.677Z,99.90
2018-09-06T08:07:31.020Z,99.90
2018-09-06T08:09:59.380Z,99.90
2018-09-06T08:12:27.724Z,99.90
2018-09-06T08:14:56.088Z,99.90
2018-09-06T08:17:24.419Z,99.90
2018-09-06T08:19:52.847Z,99.90
2018-09-06T08:22:21.315Z,99.90
2018-09-06T08:24:49.728Z,99.90
2018-09-06T08:27:18.040Z,99.90
2018-09-06T08:29:46.411Z,99.90
2018-09-06T08:32:14.735Z,99.90
2018-09-06T08:34:43.100Z,99.90
2018-09-06T08:37:11.468Z,99.10
2018-09-06T08:39:39.864Z,98.50
2018-09-06T08:42:08.212Z,98.40
2018-09-06T08:44:36.576Z,98.90
2018-09-06T08:47:05.047Z,97.50
2018-09-06T08:49:33.403Z,97.70
2018-09-06T08:52:01.844Z,97.20
2018-09-06T08:54:30.183Z,96.60
2018-09-06T08:56:58.563Z,95.60
2018-09-06T08:59:26.940Z,95.70
2018-09-06T09:01:55.340Z,94.60
2018-09-06T09:04:23.684Z,94.50
2018-09-06T09:06:52.064Z,93.70
2018-09-06T09:09:20.416Z,93.40
2018-09-06T09:11:48.779Z,93.00
2018-09-06T09:14:17.117Z,92.10
2018-09-06T09:16:45.544Z,91.90
2018-09-06T09:19:13.896Z,92.20
2018-09-06T09:21:42.372Z,91.20
2018-09-06T09:24:10.616Z,91.10
2018-09-06T09:26:38.997Z,90.70
2018-09-06T09:29:07.337Z,90.60
2018-09-06T09:31:35.715Z,88.40
2018-09-06T09:34:04.113Z,88.80
2018-09-06T09:36:32.505Z,88.20
2018-09-06T09:39:00.840Z,87.20
2018-09-06T09:41:29.217Z,86.30
2018-09-06T09:43:57.589Z,85.70
2018-09-06T09:51:22.082Z,84.20
2018-09-06T09:53:50.439Z,82.20
2018-09-06T09:56:18.805Z,81.70
2018-09-06T09:58:47.192Z,83.20
2018-09-06T10:01:15.666Z,80.80
2018-09-06T10:08:24.930Z,80.30
2018-09-06T10:10:53.249Z,81.50
2018-09-06T10:13:21.596Z,76.60
2018-09-06T10:15:49.947Z,77.50
2018-09-06T10:18:18.428Z,77.60
2018-09-06T10:20:46.713Z,77.60
2018-09-06T10:23:15.080Z,76.90
2018-09-06T10:25:43.404Z,77.00
2018-09-06T10:28:11.808Z,76.70
2018-09-06T10:30:40.140Z,76.90
2018-09-06T10:33:08.492Z,76.10
2018-09-06T10:35:36.807Z,75.20
2018-09-06T10:38:05.171Z,75.30
2018-09-06T10:40:33.507Z,74.30
2018-09-06T10:43:01.880Z,72.30
2018-09-06T10:45:30.211Z,72.00
2018-09-06T10:47:58.645Z,70.20
2018-09-06T10:50:26.932Z,70.30
2018-09-06T10:52:55.284Z,67.90
2018-09-06T10:55:23.596Z,66.60
2018-09-06T10:57:51.953Z,66.00
2018-09-06T11:00:20.264Z,64.50
2018-09-06T11:02:48.743Z,67.30
2018-09-06T11:05:17.116Z,66.90
2018-09-06T11:07:45.524Z,66.20
2018-09-06T11:10:13.904Z,65.20
2018-09-06T11:12:42.284Z,62.00
2018-09-06T11:15:10.661Z,63.50
2018-09-06T11:17:38.997Z,64.00
2018-09-06T11:20:07.340Z,65.70
2018-09-06T11:22:36.006Z,65.20
2018-09-06T11:25:04.095Z,66.20
2018-09-06T11:27:32.510Z,62.40
2018-09-06T11:30:00.792Z,60.10
2018-09-06T11:32:29.155Z,59.70
2018-09-06T11:34:57.512Z,59.50
2018-09-06T11:37:25.885Z,60.60
2018-09-06T11:39:54.284Z,62.30
2018-09-06T11:42:22.583Z,63.90
2018-09-06T11:44:50.942Z,64.00
2018-09-06T11:47:19.462Z,68.60
2018-09-06T11:49:47.720Z,67.90
2018-09-06T11:52:16.114Z,69.70
2018-09-06T11:54:44.471Z,70.80
2018-09-06T11:57:12.840Z,68.50
2018-09-06T11:59:41.219Z,68.80
2018-09-06T12:02:09.634Z,68.50
2018-09-06T12:04:37.957Z,69.80
2018-09-06T12:07:06.293Z,69.30
2018-09-06T12:09:34.639Z,68.50
2018-09-06T12:12:03.001Z,66.10
2018-09-06T12:14:31.376Z,67.00
2018-09-06T12:16:59.692Z,66.40
2018-09-06T12:19:28.091Z,65.50
2018-09-06T12:21:56.417Z,72.70
2018-09-06T12:24:24.791Z,72.80
2018-09-06T12:26:53.133Z,75.50
2018-09-06T12:29:21.505Z,75.50
2018-09-06T12:31:49.835Z,77.10
2018-09-06T12:34:18.231Z,75.20
2018-09-06T12:36:46.654Z,73.80
2018-09-06T12:39:15.020Z,74.10
2018-09-06T12:41:43.371Z,75.00
2018-09-06T12:44:11.778Z,72.40
2018-09-06T12:46:40.113Z,73.20
2018-09-06T12:49:08.492Z,72.70
2018-09-06T12:51:36.821Z,73.80
2018-09-06T12:54:05.215Z,72.30
2018-09-06T12:56:33.621Z,71.00
2018-09-06T12:59:01.967Z,71.10
2018-09-06T13:01:30.320Z,68.80
2018-09-06T13:03:58.668Z,68.60
2018-09-06T13:06:26.994Z,67.80
2018-09-06T13:08:55.360Z,69.40
2018-09-06T13:11:23.700Z,67.60
2018-09-06T13:13:52.052Z,69.10
2018-09-06T13:16:20.424Z,68.00
2018-09-06T13:18:49.081Z,69.60
2018-09-06T13:21:17.269Z,70.50
2018-09-06T13:23:45.628Z,68.80
2018-09-06T13:26:13.972Z,68.60
2018-09-06T13:28:42.361Z,68.10
2018-09-06T13:31:10.704Z,69.00
2018-09-06T13:33:39.026Z,68.10
2018-09-06T13:36:07.380Z,68.10
2018-09-06T13:38:35.705Z,67.20
2018-09-06T13:41:04.055Z,67.90
2018-09-06T13:43:32.403Z,66.70
2018-09-06T13:46:00.752Z,67.30
2018-09-06T13:48:29.346Z,66.20
2018-09-06T13:50:57.719Z,66.30
2018-09-06T13:53:26.034Z,66.60
2018-09-06T13:55:54.407Z,64.90
2018-09-06T13:58:22.723Z,65.30
2018-09-06T14:00:51.077Z,66.30
2018-09-06T14:03:19.456Z,64.40
2018-09-06T14:05:47.881Z,64.60
2018-09-06T14:08:16.180Z,65.50
2018-09-06T14:10:44.549Z,64.90
2018-09-06T14:13:12.872Z,65.10
2018-09-06T14:15:41.249Z,65.50
2018-09-06T14:18:09.656Z,65.80
2018-09-06T14:20:38.016Z,66.30
2018-09-06T14:23:06.368Z,66.50
2018-09-06T14:25:41.496Z,66.40
2018-09-06T14:28:09.829Z,68.30
2018-09-06T14:30:39.233Z,67.90
2018-09-06T14:33:07.624Z,68.00
2018-09-06T14:35:35.981Z,67.60
2018-09-06T14:38:04.597Z,67.40
2018-09-06T14:40:33.017Z,68.20
2018-09-06T14:43:01.348Z,67.70
2018-09-06T14:45:29.745Z,67.80
2018-09-06T14:47:58.078Z,68.50
2018-09-06T14:50:26.452Z,69.40
2018-09-06T14:52:54.786Z,69.10
2018-09-06T14:55:23.144Z,68.50
2018-09-06T14:57:51.614Z,68.80
2018-09-06T15:00:20.000Z,69.10
2018-09-06T15:02:48.344Z,70.20
2018-09-06T15:05:16.724Z,72.50
2018-09-06T15:07:45.078Z,74.80
2018-09-06T15:10:13.424Z,77.50
2018-09-06T15:12:41.743Z,79.30
2018-09-06T15:15:10.068Z,82.80
2018-09-06T15:17:38.416Z,84.80
2018-09-06T15:20:06.909Z,87.90
2018-09-06T15:22:35.220Z,91.20
2018-09-06T15:25:03.539Z,92.60
2018-09-06T15:27:31.994Z,93.50
2018-09-06T15:30:00.315Z,94.80
2018-09-06T15:32:28.656Z,96.50
2018-09-06T15:34:56.980Z,97.50
2018-09-06T15:37:25.323Z,98.20
2018-09-06T15:39:53.648Z,99.60
2018-09-06T15:42:22.008Z,99.90
2018-09-06T15:44:50.348Z,99.90
2018-09-06T15:47:18.703Z,99.90
2018-09-06T15:49:47.090Z,99.90
2018-09-06T15:52:15.489Z,99.90
2018-09-06T15:54:43.815Z,99.90
2018-09-06T15:57:12.147Z,99.90
2018-09-06T15:59:40.468Z,99.90
2018-09-06T16:02:08.947Z,99.90
2018-09-06T16:04:37.272Z,99.90
2018-09-06T16:07:05.657Z,99.90
2018-09-06T16:09:34.003Z,99.90
2018-09-06T16:12:02.373Z,99.90
2018-09-06T16:14:30.699Z,99.90
2018-09-06T16:16:59.060Z,99.90
2018-09-06T16:19:27.382Z,99.90
2018-09-06T16:21:55.756Z,99.90
2018-09-06T16:24:24.100Z,99.90
2018-09-06T16:26:52.509Z,99.90
2018-09-06T16:29:20.835Z,99.90
2018-09-06T16:31:49.195Z,99.90
2018-09-06T16:34:17.885Z,99.90
2018-09-06T16:36:46.311Z,99.90
2018-09-06T16:39:14.624Z,99.90
2018-09-06T16:41:42.998Z,99.90
2018-09-06T16:44:11.392Z,99.90
2018-09-06T16:46:39.728Z,99.90
2018-09-06T16:49:08.092Z,99.90
2018-09-06T16:51:36.424Z,99.90
2018-09-06T16:54:04.797Z,99.90
2018-09-06T16:56:33.124Z,99.90
2018-09-06T16:59:01.501Z,99.90
2018-09-06T17:01:29.840Z,99.90
2018-09-06T17:03:58.217Z,99.90
2018-09-06T17:06:26.519Z,99.90
2018-09-06T17:08:54.861Z,99.90
2018-09-06T17:11:23.279Z,99.90
2018-09-06T17:13:51.623Z,99.90
2018-09-06T17:16:19.932Z,99.90
2018-09-06T17:18:48.283Z,99.90
2018-09-06T17:21:16.599Z,99.90
2018-09-06T17:23:44.943Z,99.90
2018-09-06T17:26:13.339Z,99.90
2018-09-06T17:28:41.644Z,99.90
2018-09-06T17:31:09.955Z,99.90
2018-09-06T17:33:38.292Z,99.90
2018-09-06T17:36:06.620Z,99.90
2018-09-06T17:38:34.984Z,99.90
2018-09-06T17:41:03.309Z,99.90
2018-09-06T17:43:31.666Z,99.90
2018-09-06T17:46:00.008Z,99.90
2018-09-06T17:48:28.372Z,99.90
2018-09-06T17:50:56.696Z,99.90
2018-09-06T17:53:25.056Z,99.90
2018-09-06T17:55:53.376Z,99.90
2018-09-06T17:58:21.724Z,99.90
2018-09-06T18:01:14.427Z,99.90
2018-09-06T18:03:42.846Z,99.90
2018-09-06T18:06:11.436Z,99.90
2018-09-06T18:08:39.793Z,99.90
2018-09-06T18:11:08.197Z,99.90
2018-09-06T18:13:36.492Z,99.90
2018-09-06T18:16:04.880Z,99.90
2018-09-06T18:18:33.277Z,99.90
2018-09-06T18:21:01.668Z,99.90
2018-09-06T18:23:30.050Z,99.90
2018-09-06T18:25:58.528Z,99.90
2018-09-06T18:28:26.868Z,99.90
2018-09-06T18:30:55.228Z,99.90
2018-09-06T18:33:23.607Z,99.90
2018-09-06T18:35:51.916Z,99.90
2018-09-06T18:38:20.242Z,99.90
2018-09-06T18:40:48.593Z,99.90
2018-09-06T18:43:16.911Z,99.90
2018-09-06T18:45:45.306Z,99.90
2018-09-06T18:48:13.664Z,99.90
2018-09-06T18:50:42.048Z,99.90
2018-09-06T18:53:10.379Z,99.90
2018-09-06T18:55:38.728Z,99.90
2018-09-06T18:58:07.060Z,99.90
2018-09-06T19:00:35.611Z,99.90
2018-09-06T19:03:03.988Z,99.90
2018-09-06T19:05:32.356Z,99.90
2018-09-06T19:08:00.790Z,99.90
2018-09-06T19:10:29.209Z,99.90
2018-09-06T19:12:57.531Z,99.90
2018-09-06T19:15:25.891Z,99.90
2018-09-06T19:17:54.243Z,99.90
2018-09-06T19:20:22.669Z,99.90
2018-09-06T19:22:51.336Z,99.90
2018-09-06T19:25:19.701Z,99.90
2018-09-06T19:27:48.051Z,99.90
2018-09-06T19:30:16.448Z,99.90
2018-09-06T19:32:44.896Z,99.90
2018-09-06T19:35:13.305Z,99.90
2018-09-06T19:37:41.636Z,99.90
2018-09-06T19:40:10.153Z,99.90
2018-09-06T19:42:38.581Z,99.90
2018-09-06T19:45:08.989Z,99.90
2018-09-06T19:47:37.528Z,99.90
2018-09-06T19:50:06.013Z,99.90
2018-09-06T19:52:34.347Z,99.90
2018-09-06T19:55:02.726Z,99.90
2018-09-06T19:57:31.056Z,99.90
2018-09-06T19:59:59.517Z,99.90
2018-09-06T20:02:27.873Z,99.90
2018-09-06T20:04:56.911Z,99.90
2018-09-06T20:07:25.269Z,99.90
2018-09-06T20:09:53.817Z,99.90
2018-09-06T20:12:22.215Z,99.90
2018-09-06T20:14:50.548Z,99.90
2018-09-06T20:17:18.920Z,99.90
2018-09-06T20:19:47.244Z,99.90
2018-09-06T20:22:16.088Z,99.90
2018-09-06T20:24:44.450Z,99.90
2018-09-06T20:27:12.851Z,99.90
2018-09-06T20:29:41.184Z,99.90
2018-09-06T20:32:09.576Z,99.90
2018-09-06T20:34:37.971Z,99.90
2018-09-06T20:37:06.351Z,99.90
2018-09-06T20:39:34.687Z,99.90
2018-09-06T20:42:03.060Z,99.90
2018-09-06T20:44:31.388Z,99.90
2018-09-06T20:47:00.012Z,99.90
2018-09-06T20:49:28.344Z,99.90
2018-09-06T20:51:56.817Z,99.90
2018-09-06T20:54:25.180Z,99.90
2018-09-06T20:56:53.543Z,99.90
2018-09-06T20:59:21.899Z,99.90
2018-09-06T21:01:50.264Z,99.90
2018-09-06T21:04:18.580Z,99.90
2018-09-06T21:06:46.939Z,99.90
2018-09-06T21:09:15.251Z,99.90
2018-09-06T21:11:43.599Z,99.90
2018-09-06T21:14:11.916Z,99.90
2018-09-06T21:16:40.260Z,99.90
2018-09-06T21:19:08.587Z,99.90
2018-09-06T21:21:36.931Z,99.90
2018-09-06T21:24:05.266Z,99.90
2018-09-06T21:26:33.620Z,99.90
2018-09-06T21:29:01.984Z,99.90
2018-09-06T21:31:30.323Z,99.90
2018-09-06T21:33:58.643Z,99.90
2018-09-06T21:36:27.068Z,99.90
2018-09-06T21:38:55.384Z,99.90
2018-09-06T21:41:23.734Z,99.90
2018-09-06T21:43:52.057Z,99.90
2018-09-06T21:46:20.395Z,99.90
2018-09-06T21:48:48.714Z,99.90
2018-09-06T21:51:17.124Z,99.90
2018-09-06T21:53:45.403Z,99.90
2018-09-06T21:56:13.744Z,99.90
2018-09-06T21:58:42.064Z,99.90
2018-09-06T22:01:10.391Z,99.90
2018-09-06T22:03:43.939Z,99.90
2018-09-06T22:06:12.283Z,99.90
2018-09-06T22:08:40.631Z,99.90
2018-09-06T22:11:09.004Z,99.90
2018-09-06T22:13:37.356Z,99.90
2018-09-06T22:16:06.203Z,99.90
2018-09-06T22:18:34.564Z,99.90
2018-09-06T22:21:02.869Z,99.90
2018-09-06T22:23:31.272Z,99.90
2018-09-06T22:25:59.594Z,99.90
2018-09-06T22:28:27.949Z,99.90
2018-09-06T22:30:56.299Z,99.90
2018-09-06T22:33:24.654Z,99.90
2018-09-06T22:35:52.964Z,99.90
2018-09-06T22:38:21.316Z,99.90
2018-09-06T22:40:49.635Z,99.90
2018-09-06T22:43:17.988Z,99.90
2018-09-06T22:45:46.329Z,99.90
2018-09-06T22:48:15.784Z,99.90
2018-09-06T22:50:44.107Z,99.90
2018-09-06T22:53:12.484Z,99.90
2018-09-06T22:55:40.799Z,99.90
2018-09-06T22:58:09.143Z,99.90
2018-09-06T23:00:37.472Z,99.90
2018-09-06T23:03:11.164Z,99.90
2018-09-06T23:05:39.485Z,99.90
2018-09-06T23:08:07.847Z,99.90
2018-09-06T23:10:36.167Z,99.90
2018-09-06T23:13:04.520Z,99.90
2018-09-06T23:15:32.852Z,99.90
2018-09-06T23:18:01.296Z,99.90
2018-09-06T23:20:29.712Z,99.90
2018-09-06T23:22:58.071Z,99.90
2018-09-06T23:25:26.399Z,99.90
2018-09-06T23:27:54.811Z,99.90
2018-09-06T23:30:23.132Z,99.90
2018-09-06T23:32:51.528Z,99.90
2018-09-06T23:35:19.860Z,99.90
2018-09-06T23:37:48.215Z,99.90
2018-09-06T23:40:16.533Z,99.90
2018-09-06T23:42:44.903Z,99.90
2018-09-06T23:45:13.245Z,99.90
2018-09-06T23:47:41.604Z,99.90
2018-09-06T23:50:09.952Z,99.90
2018-09-06T23:52:38.314Z,99.90
2018-09-06T23:55:07.536Z,99.90
2018-09-06T23:57:36.014Z,99.90
